Time;durP1;ratioP1;P1;durP2;ratioP2;P2;SDS_P1;SDS_P2;PMS_P1;PMS_P2;Temp;Humidity;BMP_temperature;BMP_pressure;BME280_temperature;BME280_humidity;BME280_pressure;Samples;Min_cycle;Max_cycle;Signal;HPM_P1;HPM_P2
2023/07/09 00:01:51;;;;;;;2.90;2.60;;;21.20;80.00;;;;;;5035617;28;20026;-52
2023/07/09 00:04:18;;;;;;;3.10;2.80;;;21.30;80.30;;;;;;5035510;28;20020;-53
2023/07/09 00:06:45;;;;;;;3.13;2.83;;;21.20;80.10;;;;;;5034991;28;20053;-52
2023/07/09 00:09:19;;;;;;;5.80;3.13;;;21.30;79.70;;;;;;5035411;28;20379;-53
2023/07/09 00:11:46;;;;;;;3.65;2.88;;;21.20;79.60;;;;;;5034908;28;20101;-52
2023/07/09 00:14:14;;;;;;;3.17;2.83;;;21.20;79.60;;;;;;5035269;28;20030;-53
2023/07/09 00:16:41;;;;;;;3.03;2.70;;;21.20;79.90;;;;;;5035692;28;20010;-53
2023/07/09 00:19:19;;;;;;;2.90;2.60;;;21.20;79.90;;;;;;5035319;28;20089;-50
2023/07/09 00:21:45;;;;;;;3.47;2.50;;;21.20;79.80;;;;;;5035218;28;20022;-50
2023/07/09 00:24:12;;;;;;;3.35;2.78;;;21.20;80.00;;;;;;5035173;28;20038;-51
2023/07/09 00:26:40;;;;;;;4.28;2.90;;;21.20;79.90;;;;;;5035450;28;20061;-51
2023/07/09 00:29:11;;;;;;;3.20;2.90;;;21.20;79.50;;;;;;5035146;28;20081;-49
2023/07/09 00:31:43;;;;;;;5.20;2.95;;;21.20;79.60;;;;;;5035118;28;20025;-49
2023/07/09 00:34:11;;;;;;;4.22;3.03;;;21.20;79.50;;;;;;5035196;28;20057;-51
2023/07/09 00:36:37;;;;;;;3.20;2.90;;;21.10;79.70;;;;;;5039475;28;20074;-52
2023/07/09 00:39:07;;;;;;;5.75;3.13;;;21.20;79.70;;;;;;5039433;28;20030;-51
2023/07/09 00:41:37;;;;;;;3.22;2.90;;;21.20;79.60;;;;;;5039185;28;20041;-52
2023/07/09 00:44:28;;;;;;;5.25;2.80;;;21.10;79.60;;;;;;5039000;28;20026;-52
2023/07/09 00:47:03;;;;;;;2.90;2.60;;;21.10;79.60;;;;;;5038704;28;20052;-52
2023/07/09 00:49:46;;;;;;;3.53;3.05;;;21.10;79.60;;;;;;5039177;28;20025;-53
2023/07/09 00:52:35;;;;;;;4.35;2.88;;;21.10;79.60;;;;;;5039435;28;20044;-51
2023/07/09 00:55:07;;;;;;;3.63;2.88;;;21.10;79.50;;;;;;5039085;28;20025;-54
2023/07/09 00:57:38;;;;;;;4.35;2.90;;;21.10;79.50;;;;;;5039044;28;20061;-52
2023/07/09 01:00:09;;;;;;;3.00;2.70;;;21.10;79.70;;;;;;5039158;28;20048;-49
2023/07/09 01:02:36;;;;;;;3.10;2.80;;;21.10;79.70;;;;;;5038912;28;20022;-51
2023/07/09 01:05:03;;;;;;;2.97;2.60;;;21.10;79.50;;;;;;5039000;28;20026;-52
2023/07/09 01:07:29;;;;;;;4.28;3.00;;;21.00;79.40;;;;;;5039337;28;20063;-54
2023/07/09 01:09:55;;;;;;;5.07;2.72;;;21.10;79.40;;;;;;5039496;28;20032;-50
2023/07/09 01:12:23;;;;;;;3.20;2.90;;;21.00;79.00;;;;;;5038812;28;20022;-51
2023/07/09 01:14:52;;;;;;;3.00;2.65;;;21.00;78.90;;;;;;5039043;28;20045;-52
2023/07/09 01:17:18;;;;;;;2.78;2.47;;;21.00;79.00;;;;;;5039242;28;20006;-50
2023/07/09 01:19:50;;;;;;;2.80;2.55;;;21.10;79.00;;;;;;5038666;28;20026;-51
2023/07/09 01:22:19;;;;;;;3.45;2.65;;;21.00;78.80;;;;;;5038851;28;20053;-51
2023/07/09 01:25:02;;;;;;;3.47;3.00;;;21.00;78.70;;;;;;5039179;28;20026;-52
2023/07/09 01:27:47;;;;;;;2.97;2.47;;;21.00;78.70;;;;;;5039136;28;20033;-52
2023/07/09 01:30:24;;;;;;;2.90;2.60;;;21.00;78.70;;;;;;5039060;28;20010;-51
2023/07/09 01:32:51;;;;;;;6.68;2.80;;;21.00;78.80;;;;;;5038686;28;20098;-52
2023/07/09 01:35:19;;;;;;;3.30;2.67;;;21.00;79.00;;;;;;5038728;28;20034;-50
2023/07/09 01:37:46;;;;;;;4.50;2.90;;;21.00;78.80;;;;;;5038315;28;20025;-50
2023/07/09 01:40:14;;;;;;;3.40;2.75;;;21.00;79.00;;;;;;5038707;28;20018;-52
2023/07/09 01:42:40;;;;;;;2.78;2.58;;;21.00;78.90;;;;;;5021366;28;20026;-51
2023/07/09 01:45:07;;;;;;;3.88;2.60;;;21.00;78.90;;;;;;5038687;28;20041;-52
2023/07/09 01:47:33;;;;;;;4.13;2.80;;;20.90;79.00;;;;;;5037135;28;20021;-52
2023/07/09 01:49:59;;;;;;;3.58;2.63;;;21.00;79.60;;;;;;5037887;28;20037;-51
2023/07/09 01:52:28;;;;;;;3.75;2.63;;;20.90;78.90;;;;;;5037829;28;20049;-52
2023/07/09 01:54:53;;;;;;;3.25;2.65;;;21.00;78.70;;;;;;5037689;28;20030;-52
2023/07/09 01:57:24;;;;;;;3.00;2.65;;;20.90;78.90;;;;;;5037990;28;20056;-49
2023/07/09 01:59:51;;;;;;;;;;;20.90;78.90;;;;;;5038765;28;20053;-50
2023/07/09 02:02:20;;;;;;;2.97;2.60;;;20.90;79.10;;;;;;5037841;28;19912;-51
2023/07/09 02:04:47;;;;;;;2.90;2.60;;;20.90;79.40;;;;;;5036480;28;20029;-52
2023/07/09 02:07:14;;;;;;;3.58;3.03;;;20.90;79.40;;;;;;5037830;28;20077;-53
2023/07/09 02:09:40;;;;;;;3.38;2.83;;;20.90;79.30;;;;;;5037279;28;20040;-50
2023/07/09 02:12:06;;;;;;;3.70;2.67;;;20.90;79.20;;;;;;5038091;28;20030;-50
2023/07/09 02:14:32;;;;;;;3.30;3.00;;;20.90;78.90;;;;;;5037725;28;20049;-53
2023/07/09 02:16:57;;;;;;;3.08;2.50;;;20.80;78.90;;;;;;5037193;28;20026;-53
2023/07/09 02:19:23;;;;;;;3.45;2.85;;;20.80;78.80;;;;;;5037233;28;20030;-52
2023/07/09 02:21:48;;;;;;;3.17;2.67;;;20.80;78.60;;;;;;5037448;28;20151;-52
2023/07/09 02:24:14;;;;;;;3.05;2.63;;;20.80;78.90;;;;;;5036554;28;20016;-52
2023/07/09 02:26:40;;;;;;;2.92;2.67;;;20.80;78.70;;;;;;5037680;28;20022;-49
2023/07/09 02:29:06;;;;;;;4.93;2.80;;;20.80;78.80;;;;;;5037322;28;20040;-51
2023/07/09 02:31:33;;;;;;;3.05;2.75;;;20.80;78.80;;;;;;5037217;28;20014;-52
2023/07/09 02:33:59;;;;;;;3.80;2.60;;;20.80;79.00;;;;;;5036979;28;20037;-52
2023/07/09 02:36:25;;;;;;;3.35;3.05;;;20.80;78.90;;;;;;5037132;28;20556;-52
2023/07/09 02:38:51;;;;;;;2.53;2.33;;;20.80;78.80;;;;;;5036446;28;20029;-51
2023/07/09 02:41:16;;;;;;;3.40;2.67;;;20.80;78.80;;;;;;5036847;28;20028;-51
2023/07/09 02:43:42;;;;;;;3.83;2.63;;;20.80;78.90;;;;;;5036673;28;20029;-51
2023/07/09 02:46:08;;;;;;;3.40;2.63;;;20.80;78.80;;;;;;5036930;28;20010;-51
2023/07/09 02:48:33;;;;;;;2.80;2.60;;;20.80;78.90;;;;;;5036316;28;20086;-49
2023/07/09 02:50:59;;;;;;;3.15;2.85;;;20.80;78.90;;;;;;5036621;28;20034;-52
2023/07/09 02:53:25;;;;;;;2.88;2.60;;;20.80;78.60;;;;;;5036277;28;20034;-52
2023/07/09 02:55:51;;;;;;;5.70;2.90;;;20.80;78.60;;;;;;5036297;28;20106;-53
2023/07/09 02:58:17;;;;;;;2.80;2.58;;;20.80;78.70;;;;;;5036558;28;20089;-52
2023/07/09 03:00:42;;;;;;;2.58;2.38;;;20.80;78.60;;;;;;5036059;28;20014;-51
2023/07/09 03:03:08;;;;;;;4.13;2.90;;;20.80;78.60;;;;;;5035940;28;20048;-52
2023/07/09 03:05:34;;;;;;;2.90;2.70;;;20.80;78.80;;;;;;5035716;28;20025;-51
2023/07/09 03:08:00;;;;;;;3.42;2.60;;;20.80;78.50;;;;;;5035760;28;20038;-53
2023/07/09 03:10:28;;;;;;;3.25;2.78;;;20.80;78.60;;;;;;5035227;28;20036;-51
2023/07/09 03:12:53;;;;;;;2.75;2.45;;;20.80;78.70;;;;;;5035587;28;20018;-50
2023/07/09 03:15:19;;;;;;;3.25;2.75;;;20.80;78.70;;;;;;5035661;28;20045;-52
2023/07/09 03:17:44;;;;;;;4.60;2.88;;;20.80;78.60;;;;;;5035362;28;20021;-48
2023/07/09 03:20:11;;;;;;;6.00;2.90;;;20.80;78.70;;;;;;5034977;28;20046;-52
2023/07/09 03:22:36;;;;;;;3.10;2.70;;;20.80;78.70;;;;;;5035218;28;20024;-52
2023/07/09 03:25:02;;;;;;;3.03;2.50;;;20.80;78.60;;;;;;5035482;28;20029;-52
2023/07/09 03:27:28;;;;;;;5.00;2.95;;;20.80;78.60;;;;;;5022197;28;20066;-51
2023/07/09 03:29:53;;;;;;;2.90;2.60;;;20.80;78.40;;;;;;5015913;28;20030;-51
2023/07/09 03:32:19;;;;;;;3.70;2.55;;;20.80;78.40;;;;;;5015820;28;20026;-51
2023/07/09 03:34:44;;;;;;;4.00;2.63;;;20.80;78.40;;;;;;5016072;28;20089;-48
2023/07/09 03:37:10;;;;;;;4.35;2.95;;;20.80;78.40;;;;;;5015445;28;20031;-51
2023/07/09 03:39:36;;;;;;;3.40;3.10;;;20.80;78.40;;;;;;5015835;28;20018;-50
2023/07/09 03:42:01;;;;;;;2.88;2.60;;;20.80;78.30;;;;;;5015438;28;20085;-52
2023/07/09 03:44:27;;;;;;;2.70;2.42;;;20.80;78.20;;;;;;5015144;28;20030;-50
2023/07/09 03:46:53;;;;;;;3.55;2.50;;;20.80;78.20;;;;;;5015137;28;20030;-51
2023/07/09 03:49:18;;;;;;;4.57;2.70;;;20.80;78.00;;;;;;5015102;28;20042;-51
2023/07/09 03:51:44;;;;;;;3.30;2.75;;;20.80;77.80;;;;;;5015228;28;20050;-51
2023/07/09 03:54:10;;;;;;;2.90;2.60;;;20.80;77.90;;;;;;5015495;28;20014;-51
2023/07/09 03:56:37;;;;;;;3.72;2.80;;;20.70;77.90;;;;;;5014713;28;20507;-51
2023/07/09 03:59:02;;;;;;;2.92;2.63;;;20.80;78.00;;;;;;5015415;28;20073;-53
2023/07/09 04:01:28;;;;;;;3.13;2.65;;;20.80;78.20;;;;;;5014704;28;20030;-49
2023/07/09 04:03:53;;;;;;;3.03;2.60;;;20.80;78.20;;;;;;5014850;28;20106;-50
2023/07/09 04:06:19;;;;;;;3.53;2.97;;;20.80;78.10;;;;;;5014831;28;20035;-48
2023/07/09 04:08:45;;;;;;;2.95;2.63;;;20.70;77.70;;;;;;5014537;28;20030;-51
2023/07/09 04:11:10;;;;;;;3.47;2.53;;;20.80;78.00;;;;;;5014378;28;20011;-49
2023/07/09 04:13:36;;;;;;;3.85;2.97;;;20.80;77.80;;;;;;5015049;28;20090;-50
2023/07/09 04:16:02;;;;;;;3.28;2.80;;;20.70;77.80;;;;;;5014849;28;20022;-51
2023/07/09 04:18:27;;;;;;;3.13;2.55;;;20.70;77.80;;;;;;5014997;28;20035;-53
2023/07/09 04:20:53;;;;;;;2.83;2.50;;;20.70;77.80;;;;;;5014345;28;20029;-51
2023/07/09 04:23:19;;;;;;;2.83;2.58;;;20.70;77.90;;;;;;5014443;28;20030;-51
2023/07/09 04:25:45;;;;;;;4.57;2.58;;;20.70;77.90;;;;;;5014851;28;20030;-49
2023/07/09 04:28:11;;;;;;;2.97;2.78;;;20.70;78.00;;;;;;5014616;28;20034;-51
2023/07/09 04:30:37;;;;;;;3.10;2.80;;;20.70;78.10;;;;;;5014806;28;20025;-50
2023/07/09 04:33:03;;;;;;;3.17;2.60;;;20.70;78.10;;;;;;5014207;28;20022;-50
2023/07/09 04:35:29;;;;;;;3.10;2.80;;;20.80;78.10;;;;;;5014459;28;20044;-50
2023/07/09 04:37:55;;;;;;;4.05;3.03;;;20.80;78.00;;;;;;5014464;28;20035;-51
2023/07/09 04:40:20;;;;;;;3.33;2.95;;;20.80;77.90;;;;;;5014515;28;20074;-53
2023/07/09 04:42:46;;;;;;;3.33;2.80;;;20.80;78.00;;;;;;5014828;28;20037;-52
2023/07/09 04:45:12;;;;;;;2.80;2.50;;;20.80;78.20;;;;;;5028243;28;20022;-50
2023/07/09 04:47:38;;;;;;;4.20;3.13;;;20.80;78.20;;;;;;5034292;28;20038;-51
2023/07/09 04:50:06;;;;;;;3.65;2.95;;;20.90;78.40;;;;;;5033917;28;20017;-51
2023/07/09 04:52:31;;;;;;;2.83;2.60;;;20.90;78.40;;;;;;5034268;28;20030;-53
2023/07/09 04:54:57;;;;;;;2.97;2.67;;;20.90;78.30;;;;;;5034819;28;20068;-51
2023/07/09 04:57:26;;;;;;;3.28;2.85;;;21.00;78.50;;;;;;5034980;28;20050;-52
2023/07/09 04:59:52;;;;;;;4.63;2.78;;;21.00;78.30;;;;;;5035263;28;20029;-51
2023/07/09 05:02:18;;;;;;;2.97;2.65;;;21.00;78.20;;;;;;5034970;28;20022;-51
2023/07/09 05:04:43;;;;;;;3.88;2.78;;;21.10;78.10;;;;;;5034816;28;20018;-51
2023/07/09 05:07:09;;;;;;;3.47;2.63;;;21.10;78.20;;;;;;5034986;28;20058;-52
2023/07/09 05:09:35;;;;;;;4.53;2.58;;;21.20;78.10;;;;;;5035228;28;20444;-51
2023/07/09 05:12:01;;;;;;;5.20;3.10;;;21.20;78.10;;;;;;5034869;28;20368;-51
2023/07/09 05:14:29;;;;;;;3.45;2.88;;;21.20;78.00;;;;;;5034487;28;20018;-51
2023/07/09 05:16:55;;;;;;;7.03;2.85;;;21.30;77.90;;;;;;5034548;28;20033;-53
2023/07/09 05:19:21;;;;;;;3.40;2.88;;;21.30;77.70;;;;;;5017827;28;20006;-50
2023/07/09 05:21:46;;;;;;;3.38;2.95;;;21.30;77.90;;;;;;5036349;28;20029;-53
2023/07/09 05:24:12;;;;;;;3.88;2.70;;;21.40;77.80;;;;;;5038152;28;20041;-49
2023/07/09 05:26:37;;;;;;;3.17;2.78;;;21.50;77.60;;;;;;5037915;28;20045;-54
2023/07/09 05:29:05;;;;;;;3.72;2.78;;;21.50;78.20;;;;;;5037592;28;20034;-47
2023/07/09 05:31:31;;;;;;;3.33;3.03;;;21.50;77.40;;;;;;5037708;28;20009;-50
2023/07/09 05:33:58;;;;;;;2.95;2.65;;;21.60;77.20;;;;;;5037729;28;20089;-50
2023/07/09 05:36:25;;;;;;;3.50;3.17;;;21.60;77.20;;;;;;5037595;28;20018;-51
2023/07/09 05:38:51;;;;;;;2.88;2.65;;;21.60;77.30;;;;;;5037409;28;20050;-51
2023/07/09 05:41:17;;;;;;;5.22;3.20;;;21.70;77.40;;;;;;5037324;28;20033;-51
2023/07/09 05:43:45;;;;;;;3.22;2.83;;;21.70;77.40;;;;;;5036491;28;20082;-50
2023/07/09 05:46:13;;;;;;;3.42;3.13;;;21.70;77.30;;;;;;5035501;28;20135;-51
2023/07/09 05:48:39;;;;;;;3.05;2.65;;;21.70;77.40;;;;;;5036600;28;20022;-54
2023/07/09 05:51:05;;;;;;;3.30;3.00;;;21.80;77.30;;;;;;5035975;28;20037;-49
2023/07/09 05:53:31;;;;;;;3.00;2.60;;;21.80;77.30;;;;;;5036125;28;20018;-51
2023/07/09 05:55:57;;;;;;;6.22;2.60;;;21.80;77.30;;;;;;5036135;28;20066;-53
2023/07/09 05:58:23;;;;;;;2.92;2.63;;;21.80;77.30;;;;;;5036889;28;20030;-52
2023/07/09 06:00:57;;;;;;;3.60;2.70;;;21.90;77.20;;;;;;5036996;28;20052;-55
2023/07/09 06:03:25;;;;;;;3.58;2.90;;;21.90;76.80;;;;;;5036699;28;20018;-52
2023/07/09 06:05:52;;;;;;;3.10;2.80;;;21.90;77.10;;;;;;5037308;28;20030;-55
2023/07/09 06:08:21;;;;;;;3.85;2.88;;;21.90;77.10;;;;;;5037534;28;20048;-51
2023/07/09 06:11:00;;;;;;;3.47;3.05;;;22.00;77.10;;;;;;5037132;28;20038;-53
2023/07/09 06:13:27;;;;;;;3.78;3.00;;;22.00;77.10;;;;;;5037020;28;20085;-53
2023/07/09 06:15:54;;;;;;;6.47;4.78;;;22.00;76.60;;;;;;5036824;28;20514;-55
2023/07/09 06:18:21;;;;;;;6.28;5.45;;;22.00;77.00;;;;;;5037137;28;20030;-52
2023/07/09 06:20:51;;;;;;;4.85;3.88;;;22.00;76.80;;;;;;5036949;28;20017;-52
2023/07/09 06:23:18;;;;;;;4.22;3.40;;;22.00;76.60;;;;;;5036965;28;20025;-49
2023/07/09 06:25:48;;;;;;;4.18;3.33;;;22.00;76.60;;;;;;5036889;28;20077;-47
2023/07/09 06:28:21;;;;;;;3.65;3.20;;;22.10;76.70;;;;;;5036787;28;20024;-52
2023/07/09 06:30:47;;;;;;;3.35;3.05;;;22.10;76.40;;;;;;5037521;28;20014;-52
2023/07/09 06:33:15;;;;;;;3.08;2.78;;;22.10;76.40;;;;;;5033257;28;20074;-51
2023/07/09 06:35:51;;;;;;;3.85;2.90;;;22.20;76.70;;;;;;5026178;28;20034;-51
2023/07/09 06:38:17;;;;;;;3.92;3.53;;;22.20;76.60;;;;;;5025225;28;20089;-52
2023/07/09 06:40:44;;;;;;;3.60;3.15;;;22.30;76.50;;;;;;5027510;28;20011;-50
2023/07/09 06:43:09;;;;;;;3.38;2.88;;;22.30;76.10;;;;;;5031391;28;20037;-51
2023/07/09 06:45:35;;;;;;;3.42;3.13;;;22.30;76.00;;;;;;5037250;28;20082;-50
2023/07/09 06:48:01;;;;;;;4.20;3.30;;;22.30;76.40;;;;;;5019669;28;20026;-53
2023/07/09 06:50:27;;;;;;;3.28;2.95;;;22.40;76.50;;;;;;5023555;28;20029;-52
2023/07/09 06:52:52;;;;;;;3.35;2.85;;;22.40;76.40;;;;;;5027374;28;20062;-51
2023/07/09 06:55:18;;;;;;;3.38;2.92;;;22.40;76.30;;;;;;5025159;28;20033;-51
2023/07/09 06:57:44;;;;;;;3.83;2.97;;;22.50;76.30;;;;;;5015483;28;20173;-53
2023/07/09 07:00:10;;;;;;;4.30;3.28;;;22.50;76.50;;;;;;5016566;28;20013;-53
2023/07/09 07:02:36;;;;;;;4.95;3.10;;;22.50;76.30;;;;;;5016284;28;20034;-51
2023/07/09 07:05:02;;;;;;;4.18;3.20;;;22.50;76.30;;;;;;5011478;28;20514;-53
2023/07/09 07:07:28;;;;;;;4.85;3.55;;;22.60;76.30;;;;;;5016142;28;20042;-53
2023/07/09 07:09:54;;;;;;;3.65;3.22;;;22.60;76.10;;;;;;5031299;28;20025;-54
2023/07/09 07:12:28;;;;;;;4.05;3.00;;;22.60;76.40;;;;;;5031469;28;20030;-53
2023/07/09 07:14:55;;;;;;;4.13;3.08;;;22.70;76.00;;;;;;5032274;28;20022;-52
2023/07/09 07:17:21;;;;;;;3.78;3.22;;;22.80;76.10;;;;;;5032890;28;20867;-52
2023/07/09 07:19:47;;;;;;;3.50;3.10;;;22.70;76.20;;;;;;5029771;28;20072;-53
2023/07/09 07:22:13;;;;;;;4.40;3.05;;;22.80;75.80;;;;;;5028758;28;20029;-51
2023/07/09 07:24:39;;;;;;;4.22;3.20;;;22.80;75.70;;;;;;5027369;28;20036;-52
2023/07/09 07:27:05;;;;;;;3.90;3.30;;;22.80;75.50;;;;;;5028212;28;20029;-52
2023/07/09 07:29:30;;;;;;;3.30;3.00;;;22.90;75.80;;;;;;5027349;28;20033;-49
2023/07/09 07:31:57;;;;;;;3.20;2.83;;;22.90;75.60;;;;;;5010029;28;20176;-53
2023/07/09 07:34:22;;;;;;;4.00;3.15;;;23.00;75.60;;;;;;5029290;28;20313;-54
2023/07/09 07:36:50;;;;;;;3.70;3.20;;;23.00;75.40;;;;;;5028810;28;20229;-50
2023/07/09 07:39:15;;;;;;;3.50;3.10;;;23.00;75.30;;;;;;5027782;28;20030;-51
2023/07/09 07:41:41;;;;;;;3.65;3.30;;;23.10;75.00;;;;;;5028916;28;20053;-53
2023/07/09 07:44:07;;;;;;;3.35;3.05;;;23.10;74.90;;;;;;5028746;28;20022;-52
2023/07/09 07:46:34;;;;;;;3.45;3.15;;;23.10;74.70;;;;;;5027919;28;20080;-52
2023/07/09 07:49:00;;;;;;;3.97;3.45;;;23.10;74.90;;;;;;5028473;28;20056;-51
2023/07/09 07:51:25;;;;;;;3.33;3.03;;;23.20;74.90;;;;;;5027573;28;20049;-53
2023/07/09 07:53:52;;;;;;;3.83;3.15;;;23.20;74.70;;;;;;5010597;28;20026;-53
2023/07/09 07:56:18;;;;;;;3.22;2.75;;;23.20;74.40;;;;;;5026106;28;20065;-50
2023/07/09 07:58:44;;;;;;;5.30;2.95;;;23.20;74.40;;;;;;5027669;28;20029;-54
2023/07/09 08:01:10;;;;;;;3.95;3.33;;;23.20;74.40;;;;;;5028079;28;20034;-52
2023/07/09 08:03:35;;;;;;;3.45;3.15;;;23.20;74.40;;;;;;5027884;28;20510;-53
2023/07/09 08:06:01;;;;;;;3.50;3.00;;;23.20;74.50;;;;;;5028507;28;20022;-55
2023/07/09 08:08:27;;;;;;;3.38;3.00;;;23.30;74.40;;;;;;5028798;28;20041;-52
2023/07/09 08:11:04;;;;;;;3.17;2.88;;;23.30;74.30;;;;;;5027558;28;20030;-54
2023/07/09 08:13:32;;;;;;;4.82;3.13;;;23.40;74.10;;;;;;5026833;28;20014;-53
2023/07/09 08:15:58;;;;;;;3.10;2.80;;;23.40;74.00;;;;;;5027473;28;20022;-53
2023/07/09 08:18:23;;;;;;;3.95;2.97;;;23.50;73.90;;;;;;5027960;28;20026;-53
2023/07/09 08:20:49;;;;;;;3.35;3.05;;;23.50;73.80;;;;;;5026939;28;20068;-51
2023/07/09 08:23:15;;;;;;;3.45;3.08;;;23.50;73.90;;;;;;5026216;28;20108;-52
2023/07/09 08:25:40;;;;;;;3.10;2.80;;;23.60;73.70;;;;;;5026198;28;20025;-51
2023/07/09 08:28:06;;;;;;;3.45;3.10;;;23.60;73.50;;;;;;5026534;28;20306;-52
2023/07/09 08:30:31;;;;;;;3.67;3.20;;;23.70;73.60;;;;;;5026564;28;20042;-54
2023/07/09 08:32:57;;;;;;;3.30;2.83;;;23.70;73.60;;;;;;5026763;28;20033;-53
2023/07/09 08:35:23;;;;;;;2.80;2.60;;;23.70;73.50;;;;;;5027950;28;20028;-55
2023/07/09 08:37:48;;;;;;;2.60;2.40;;;23.70;73.20;;;;;;5028276;28;20056;-52
2023/07/09 08:40:17;;;;;;;2.85;2.60;;;23.80;73.00;;;;;;5028687;28;20030;-54
2023/07/09 08:42:47;;;;;;;3.00;2.70;;;23.80;72.60;;;;;;5027857;28;20032;-54
2023/07/09 08:45:40;;;;;;;3.55;2.90;;;23.80;72.50;;;;;;5026912;28;20367;-53
2023/07/09 08:48:30;;;;;;;2.70;2.50;;;23.90;72.50;;;;;;5027977;28;20022;-53
2023/07/09 08:51:04;;;;;;;3.15;2.78;;;23.90;72.50;;;;;;5028019;28;20086;-52
2023/07/09 08:53:39;;;;;;;3.90;2.80;;;24.00;72.40;;;;;;5028487;28;20057;-53
2023/07/09 08:56:09;;;;;;;2.92;2.60;;;24.00;72.10;;;;;;5030762;28;20101;-51
2023/07/09 08:58:36;;;;;;;2.87;2.63;;;24.10;72.30;;;;;;5032642;28;20078;-52
2023/07/09 09:01:06;;;;;;;2.97;2.67;;;24.10;72.00;;;;;;5032985;28;20021;-51
2023/07/09 09:03:34;;;;;;;4.28;3.42;;;24.20;72.00;;;;;;5032438;28;20105;-50
2023/07/09 09:05:59;;;;;;;3.40;3.10;;;24.20;72.30;;;;;;5032410;28;20049;-52
2023/07/09 09:08:58;;;;;;;3.58;3.13;;;24.20;72.00;;;;;;5032566;28;20060;-54
2023/07/09 09:11:46;;;;;;;3.20;2.90;;;24.30;71.40;;;;;;5031913;28;20026;-52
2023/07/09 09:14:32;;;;;;;3.30;2.60;;;24.30;71.50;;;;;;5030241;28;20119;-56
2023/07/09 09:16:58;;;;;;;3.20;2.90;;;24.30;71.20;;;;;;5029962;28;20049;-51
2023/07/09 09:19:36;;;;;;;3.40;3.00;;;24.30;70.90;;;;;;5028819;28;20030;-53
2023/07/09 09:22:09;;;;;;;4.22;2.72;;;24.40;70.90;;;;;;5030765;28;20045;-50
2023/07/09 09:24:40;;;;;;;4.03;2.92;;;24.40;71.00;;;;;;5031325;28;20037;-52
2023/07/09 09:27:08;;;;;;;3.00;2.70;;;24.40;70.80;;;;;;5031707;28;20037;-50
2023/07/09 09:29:34;;;;;;;3.53;2.70;;;24.40;71.50;;;;;;5030206;28;20207;-51
2023/07/09 09:32:16;;;;;;;2.70;2.50;;;24.40;70.70;;;;;;5029344;28;20030;-52
2023/07/09 09:34:41;;;;;;;3.22;2.70;;;24.50;70.70;;;;;;5028157;28;20033;-50
2023/07/09 09:37:11;;;;;;;2.58;2.38;;;24.50;70.90;;;;;;5029321;28;20018;-50
2023/07/09 09:39:38;;;;;;;3.00;2.70;;;24.50;70.90;;;;;;5028787;28;20524;-53
2023/07/09 09:42:11;;;;;;;2.97;2.67;;;24.50;70.50;;;;;;5028546;28;20045;-51
2023/07/09 09:44:42;;;;;;;2.78;2.45;;;24.50;70.50;;;;;;5030399;28;20111;-52
2023/07/09 09:47:10;;;;;;;2.47;2.28;;;24.50;69.90;;;;;;5030683;28;20246;-54
2023/07/09 09:49:40;;;;;;;2.85;2.42;;;24.50;69.70;;;;;;5031030;28;20029;-54
2023/07/09 09:52:14;;;;;;;2.92;2.63;;;24.60;69.80;;;;;;5030428;28;20091;-53
2023/07/09 09:54:44;;;;;;;2.47;2.25;;;24.50;69.60;;;;;;5031445;28;20033;-52
2023/07/09 09:57:21;;;;;;;2.97;2.60;;;24.60;69.70;;;;;;5030237;28;20072;-50
2023/07/09 09:59:47;;;;;;;2.47;2.28;;;24.60;69.70;;;;;;5030248;28;20019;-52
2023/07/09 10:02:24;;;;;;;3.00;2.50;;;24.60;69.30;;;;;;5030544;28;20022;-53
2023/07/09 10:04:51;;;;;;;2.60;2.40;;;24.60;68.70;;;;;;5030362;28;20029;-49
2023/07/09 10:07:27;;;;;;;2.97;2.60;;;24.60;69.00;;;;;;5030717;28;20158;-54
2023/07/09 10:09:54;;;;;;;1.95;1.85;;;24.70;68.40;;;;;;5032177;28;20033;-54
2023/07/09 10:12:29;;;;;;;2.42;2.22;;;24.70;68.20;;;;;;5031402;28;20028;-52
2023/07/09 10:15:32;;;;;;;2.67;2.42;;;24.60;67.90;;;;;;5031150;28;20045;-53
2023/07/09 10:18:28;;;;;;;3.70;2.78;;;24.70;68.00;;;;;;5031713;28;20109;-53
2023/07/09 10:21:14;;;;;;;2.97;2.25;;;24.70;67.80;;;;;;5031527;28;20049;-52
2023/07/09 10:24:05;;;;;;;2.53;2.33;;;24.70;67.70;;;;;;5031658;28;20061;-49
2023/07/09 10:26:41;;;;;;;2.90;2.58;;;24.70;67.70;;;;;;5031358;28;20021;-52
2023/07/09 10:29:39;;;;;;;2.60;2.40;;;24.70;67.70;;;;;;5030605;28;20433;-52
2023/07/09 10:32:20;;;;;;;2.70;2.28;;;24.70;66.90;;;;;;5031437;28;20030;-53
2023/07/09 10:35:12;;;;;;;2.55;2.35;;;24.70;66.20;;;;;;5031816;28;20042;-51
2023/07/09 10:37:50;;;;;;;3.78;2.53;;;24.70;66.40;;;;;;5031412;28;20037;-50
2023/07/09 10:40:25;;;;;;;2.38;2.17;;;24.70;66.50;;;;;;5031719;28;20030;-54
2023/07/09 10:42:57;;;;;;;2.22;2.03;;;24.80;66.30;;;;;;5031350;28;20029;-52
2023/07/09 10:45:46;;;;;;;2.42;2.20;;;24.80;65.90;;;;;;5031054;28;20037;-53
2023/07/09 10:48:19;;;;;;;3.38;2.45;;;24.80;65.80;;;;;;5030420;28;20046;-50
2023/07/09 10:50:52;;;;;;;2.60;2.30;;;24.80;66.20;;;;;;5030570;28;20026;-50
2023/07/09 10:53:48;;;;;;;3.70;2.40;;;24.80;66.00;;;;;;5030660;28;20034;-53
2023/07/09 10:56:23;;;;;;;2.45;2.25;;;24.90;65.90;;;;;;5030842;28;20082;-54
2023/07/09 10:59:00;;;;;;;2.60;2.33;;;24.90;65.80;;;;;;5030592;28;20036;-51
2023/07/09 11:01:32;;;;;;;3.42;2.70;;;25.00;66.10;;;;;;5030881;28;20030;-54
2023/07/09 11:04:15;;;;;;;2.65;2.45;;;25.00;65.70;;;;;;5031089;28;20093;-53
2023/07/09 11:06:48;;;;;;;3.40;2.40;;;25.10;66.10;;;;;;5030342;28;20037;-51
2023/07/09 11:09:21;;;;;;;2.40;2.20;;;25.10;65.10;;;;;;5029515;28;20105;-51
2023/07/09 11:11:52;;;;;;;2.50;2.30;;;25.10;64.50;;;;;;5030019;28;20482;-50
2023/07/09 11:14:38;;;;;;;3.05;2.70;;;25.10;64.80;;;;;;5027817;28;20045;-53
2023/07/09 11:17:05;;;;;;;2.95;2.55;;;25.10;64.10;;;;;;5028703;28;20060;-51
2023/07/09 11:19:31;;;;;;;3.47;2.70;;;25.10;63.90;;;;;;5030163;28;20041;-53
2023/07/09 11:22:07;;;;;;;3.38;2.30;;;25.10;63.60;;;;;;5030042;28;20022;-51
2023/07/09 11:24:46;;;;;;;3.38;2.75;;;25.10;63.90;;;;;;5030602;28;20058;-53
2023/07/09 11:27:27;;;;;;;3.38;2.50;;;25.10;63.50;;;;;;5030182;28;20041;-53
2023/07/09 11:30:00;;;;;;;;;;;25.00;63.50;;;;;;5030277;28;20034;-52
2023/07/09 11:32:27;;;;;;;2.65;1.60;;;25.00;63.40;;;;;;5029629;28;19909;-54
2023/07/09 11:34:53;;;;;;;2.45;1.80;;;25.00;63.60;;;;;;5030218;28;20030;-49
2023/07/09 11:37:26;;;;;;;3.00;2.30;;;24.90;62.70;;;;;;5030638;28;20049;-52
2023/07/09 11:39:52;;;;;;;2.95;2.10;;;24.90;62.20;;;;;;5030103;28;20022;-51
2023/07/09 11:42:23;;;;;;;3.03;2.00;;;24.80;61.80;;;;;;5030009;28;20076;-52
2023/07/09 11:44:51;;;;;;;1.90;1.65;;;24.80;62.20;;;;;;5029975;28;20037;-53
2023/07/09 11:47:36;;;;;;;2.00;1.80;;;24.80;61.70;;;;;;5030808;28;20006;-51
2023/07/09 11:50:06;;;;;;;3.03;2.03;;;24.80;61.40;;;;;;5031115;28;20026;-54
2023/07/09 11:52:54;;;;;;;1.67;1.52;;;24.70;61.40;;;;;;5030125;28;20029;-53
2023/07/09 11:55:23;;;;;;;3.20;2.38;;;24.70;61.10;;;;;;5030084;28;20026;-52
2023/07/09 11:57:56;;;;;;;2.15;1.95;;;24.60;60.90;;;;;;5029077;28;20123;-54
2023/07/09 12:00:22;;;;;;;2.30;2.10;;;24.60;61.00;;;;;;5029111;28;20044;-53
2023/07/09 12:02:49;;;;;;;5.22;2.17;;;24.60;61.10;;;;;;5029108;28;20041;-53
2023/07/09 12:05:20;;;;;;;2.00;1.90;;;24.60;61.30;;;;;;5028071;28;20148;-52
2023/07/09 12:07:46;;;;;;;2.75;2.20;;;24.50;60.90;;;;;;5028109;28;20174;-51
2023/07/09 12:10:23;;;;;;;1.88;1.77;;;24.50;60.80;;;;;;5028252;28;20021;-52
2023/07/09 12:12:57;;;;;;;3.25;2.00;;;24.50;61.40;;;;;;5028514;28;20358;-55
2023/07/09 12:15:26;;;;;;;2.25;1.80;;;24.50;61.50;;;;;;5028689;28;20022;-52
2023/07/09 12:18:01;;;;;;;3.15;1.77;;;24.50;61.90;;;;;;5028176;28;20026;-52
2023/07/09 12:20:31;;;;;;;2.25;1.90;;;24.50;61.70;;;;;;5028137;28;20037;-54
2023/07/09 12:22:57;;;;;;;3.05;1.95;;;24.50;61.90;;;;;;5026717;28;20060;-55
2023/07/09 12:25:26;;;;;;;1.83;1.73;;;24.50;62.00;;;;;;5028372;28;20041;-52
2023/07/09 12:27:52;;;;;;;2.97;1.98;;;24.50;62.00;;;;;;5028579;28;20017;-54
2023/07/09 12:30:18;;;;;;;2.30;2.10;;;24.50;61.90;;;;;;5027545;28;20026;-52
2023/07/09 12:32:52;;;;;;;2.35;2.13;;;24.50;61.80;;;;;;5027794;28;20030;-52
2023/07/09 12:35:18;;;;;;;2.08;1.95;;;24.50;61.70;;;;;;5027834;28;20370;-52
2023/07/09 12:37:46;;;;;;;2.55;1.98;;;24.40;61.80;;;;;;5028685;28;20038;-51
2023/07/09 12:40:20;;;;;;;2.60;1.90;;;24.40;61.80;;;;;;5011193;28;20030;-49
2023/07/09 12:42:47;;;;;;;1.90;1.80;;;24.40;61.60;;;;;;5027469;28;20026;-50
2023/07/09 12:45:19;;;;;;;1.90;1.80;;;24.40;61.90;;;;;;5028741;28;20082;-49
2023/07/09 12:47:46;;;;;;;2.00;1.80;;;24.40;62.00;;;;;;5028313;28;20049;-51
2023/07/09 12:50:19;;;;;;;1.80;1.70;;;24.40;61.80;;;;;;5028424;28;20026;-52
2023/07/09 12:52:47;;;;;;;2.20;2.00;;;24.40;62.10;;;;;;5028284;28;20049;-53
2023/07/09 12:55:25;;;;;;;2.38;2.00;;;24.40;61.90;;;;;;5027403;28;20026;-51
2023/07/09 12:58:00;;;;;;;1.70;1.60;;;24.40;62.30;;;;;;5027568;28;20029;-54
2023/07/09 13:00:30;;;;;;;2.40;2.20;;;24.40;62.40;;;;;;5028770;28;20090;-53